Ann Arbor, MI

11:28 EDT le 01 octobre 2016 (GMT -0400)
Emerson School | | Change Station

Alt. 1014 ft 42.25 °N, 83.84 °W | Updated 7 seconds ago

Mostly Cloudy
Nuageux
64.4 ° F
Paraît 64.4 ° F
N
0.2
Vent Variable Vent de SSE
Gusts 2.5 mph

Aujourd'hui
Haut(e) -- | Bas -- ° F
--% Risque de précip.
Hier
Haut(e) -- | Bas -- ° F
Precip. -- pouce
Pression 30.05 pouce
Visibilité 10.0 Miles terrestres
Nuages Peu 1100 ft
Nuages épars 1600 ft
Nuageux 4500 ft
Point de rosée 59 ° F
Humidité 83%
Précipitations 0.48 pouce
Profondeur de la couche neigeuse Non disponible.
7:32 AM 7:15 PM
Nouvelle lune, 0% visible
SPECI KARB 011457Z 13007KT 10SM FEW011 SCT016 BKN045 17/15 A3005 RMK AO2 T01720150
Pression 30.05 pouce
Visibilité 10.0 Miles terrestres
Nuages Peu 1100 ft
Nuages épars 1600 ft
Nuageux 4500 ft
Point de rosée 59 ° F
Humidité 83%
Précipitations 0.48 pouce
Profondeur de la couche neigeuse Non disponible.
7:32 AM 7:15 PM
Nouvelle lune, 0% visible
SPECI KARB 011457Z 13007KT 10SM FEW011 SCT016 BKN045 17/15 A3005 RMK AO2 T01720150

10-Day Weather Forecast

Almanac

Astronomie

Oct. 01, 2016 Lever Coucher
Temps réel
Crépuscule civil
Crépuscule nautique
Crépuscule astronomique
Lune
Durée de lumière visible
Longueur du jour
Tomorrow will be .
, % of the Moon is Illuminated

Extrêmes aujourd'hui

State Highs State Lows

Community

WunderPhotos

Upload Photos

1,942,955 Photos téléchargées !

WunderBlog® & News

Nearby

Qualité de l'air

  Qualité de l'air Indice de la qualité de l'air Polluant
Not available.

Épaisseur de neige

Station Depth Altitude

Activité sismique

Ville Distance Mag. Time & Date
Minimum magnitude displayed is 2.5.

Températures des eaux côtières

Lieu Température

Stations

Stations météo à proximité

Emplacement de la station Température Refroidissement éolien Point de rosée Humidité Vent Precip. Alt. Mise à jour Type
                   

Watches & Warnings

There are currently no watches in effect.